createdAt,value
2022-11-14T00:02:26.305Z,38.20
2022-11-14T00:05:14.698Z,42.00
2022-11-14T00:08:03.061Z,38.30
2022-11-14T00:10:52.539Z,37.90
2022-11-14T00:13:40.796Z,40.20
2022-11-14T00:16:29.511Z,39.70
2022-11-14T00:19:17.581Z,40.50
2022-11-14T00:22:05.842Z,39.60
2022-11-14T00:24:54.301Z,39.70
2022-11-14T00:27:42.411Z,39.70
2022-11-14T00:30:30.899Z,39.40
2022-11-14T00:33:22.481Z,43.80
2022-11-14T00:36:11.093Z,37.00
2022-11-14T00:38:59.679Z,39.60
2022-11-14T00:41:48.313Z,44.10
2022-11-14T00:44:37.411Z,38.20
2022-11-14T00:47:25.934Z,37.30
2022-11-14T00:50:14.460Z,37.40
2022-11-14T00:53:02.554Z,35.20
2022-11-14T00:55:51.153Z,34.60
2022-11-14T00:58:39.737Z,42.20
2022-11-14T01:01:28.307Z,44.30
2022-11-14T01:04:21.440Z,41.10
2022-11-14T01:07:09.751Z,46.20
2022-11-14T01:09:58.427Z,41.80
2022-11-14T01:12:48.135Z,45.90
2022-11-14T01:15:44.202Z,44.00
2022-11-14T01:18:32.572Z,45.90
2022-11-14T01:21:20.877Z,41.30
2022-11-14T01:24:09.172Z,45.60
2022-11-14T01:26:59.841Z,45.60
2022-11-14T01:29:47.772Z,37.50
2022-11-14T01:32:36.588Z,45.30
2022-11-14T01:35:24.768Z,43.30
2022-11-14T01:38:16.921Z,44.60
2022-11-14T01:41:06.304Z,46.70
2022-11-14T01:43:54.370Z,43.70
2022-11-14T01:46:43.170Z,46.90
2022-11-14T01:49:43.282Z,44.20
2022-11-14T01:52:34.019Z,42.70
2022-11-14T01:55:22.007Z,43.80
2022-11-14T01:58:10.112Z,46.20
2022-11-14T02:00:58.594Z,42.30
2022-11-14T02:03:47.593Z,42.80
2022-11-14T02:06:35.764Z,44.30
2022-11-14T02:09:24.008Z,43.80
2022-11-14T02:12:14.116Z,42.50
2022-11-14T02:15:06.523Z,44.30
2022-11-14T02:17:55.189Z,43.30
2022-11-14T02:20:44.514Z,46.90
2022-11-14T02:23:35.513Z,47.00
2022-11-14T02:26:24.130Z,43.90
2022-11-14T02:29:12.588Z,39.80
2022-11-14T02:32:00.850Z,44.80
2022-11-14T02:34:49.044Z,41.30
2022-11-14T02:37:37.279Z,43.60
2022-11-14T02:40:25.302Z,41.60
2022-11-14T02:43:13.224Z,45.40
2022-11-14T02:46:05.390Z,41.50
2022-11-14T02:48:54.031Z,44.20
2022-11-14T02:51:42.554Z,44.40
2022-11-14T02:54:30.577Z,37.40
2022-11-14T02:57:18.650Z,44.80
2022-11-14T03:00:13.313Z,45.20
2022-11-14T03:03:02.868Z,44.10
2022-11-14T03:05:53.376Z,45.00
2022-11-14T03:08:41.365Z,43.80
2022-11-14T03:11:29.742Z,42.90
2022-11-14T03:14:18.053Z,43.30
2022-11-14T03:17:06.294Z,44.10
2022-11-14T03:19:54.233Z,44.90
2022-11-14T03:22:42.380Z,42.40
2022-11-14T03:25:30.360Z,42.80
2022-11-14T03:28:18.429Z,45.10
2022-11-14T03:31:06.812Z,43.30
2022-11-14T03:33:54.890Z,43.90
2022-11-14T03:36:43.489Z,40.60
2022-11-14T03:39:31.255Z,41.60
2022-11-14T03:42:19.196Z,41.40
2022-11-14T03:45:07.963Z,43.90
2022-11-14T03:47:56.929Z,41.60
2022-11-14T03:50:45.659Z,41.30
2022-11-14T03:53:33.730Z,44.10
2022-11-14T03:56:21.908Z,40.40
2022-11-14T03:59:10.174Z,42.00
2022-11-14T04:01:58.577Z,42.90
2022-11-14T04:04:46.734Z,43.60
2022-11-14T04:07:34.705Z,44.40
2022-11-14T04:10:22.847Z,44.60
2022-11-14T04:13:13.940Z,44.90
2022-11-14T04:16:02.317Z,42.30
2022-11-14T04:18:50.268Z,45.80
2022-11-14T04:21:38.398Z,45.90
2022-11-14T04:24:26.547Z,43.30
2022-11-14T04:27:14.827Z,47.70
2022-11-14T04:30:03.502Z,41.20
2022-11-14T04:32:51.977Z,41.80
2022-11-14T04:35:40.474Z,44.40
2022-11-14T04:38:28.885Z,42.30
2022-11-14T04:41:17.259Z,41.90
2022-11-14T04:44:05.622Z,41.80
2022-11-14T04:46:53.879Z,43.00
2022-11-14T04:49:42.004Z,40.50
2022-11-14T04:52:30.387Z,42.00
2022-11-14T04:55:18.773Z,41.30
2022-11-14T04:58:06.836Z,43.80
2022-11-14T05:00:54.850Z,43.40
2022-11-14T05:03:42.996Z,42.80
2022-11-14T05:06:31.176Z,43.10
2022-11-14T05:09:19.457Z,45.60
2022-11-14T05:12:08.416Z,43.90
2022-11-14T05:14:56.360Z,45.30
2022-11-14T05:17:44.546Z,43.70
2022-11-14T05:20:32.896Z,41.20
2022-11-14T05:23:22.724Z,43.10
2022-11-14T05:26:12.500Z,43.50
2022-11-14T05:29:00.780Z,42.40
2022-11-14T05:31:48.833Z,41.00
2022-11-14T05:34:37.234Z,40.80
2022-11-14T05:37:25.671Z,40.90
2022-11-14T05:40:14.566Z,41.10
2022-11-14T05:43:03.457Z,37.10
2022-11-14T05:45:51.678Z,34.60
2022-11-14T05:48:39.948Z,37.00
2022-11-14T05:51:28.727Z,34.70
2022-11-14T05:54:17.417Z,34.00
2022-11-14T05:57:06.256Z,34.60
2022-11-14T05:59:54.273Z,33.80
2022-11-14T06:02:42.662Z,33.60
2022-11-14T06:05:31.399Z,33.40
2022-11-14T06:08:20.010Z,33.70
2022-11-14T06:11:09.821Z,34.00
2022-11-14T06:13:57.935Z,33.50
2022-11-14T06:16:46.504Z,34.90
2022-11-14T06:19:34.582Z,38.00
2022-11-14T06:22:23.191Z,34.30
2022-11-14T06:25:13.260Z,32.80
2022-11-14T06:28:02.034Z,41.00
2022-11-14T06:30:56.746Z,34.30
2022-11-14T06:33:46.147Z,33.80
2022-11-14T06:36:35.497Z,36.60
2022-11-14T06:39:24.500Z,33.90
2022-11-14T06:42:12.610Z,36.90
2022-11-14T06:45:01.338Z,35.40
2022-11-14T06:47:50.129Z,36.10
2022-11-14T06:50:38.664Z,39.50
2022-11-14T06:53:27.640Z,37.80
2022-11-14T06:56:17.798Z,40.20
2022-11-14T06:59:07.598Z,36.00
2022-11-14T07:01:56.391Z,33.90
2022-11-14T07:04:45.030Z,34.00
2022-11-14T07:07:33.640Z,33.20
2022-11-14T07:10:22.306Z,32.60
2022-11-14T07:13:12.714Z,34.20
2022-11-14T07:16:01.399Z,33.80
2022-11-14T07:18:49.752Z,36.30
2022-11-14T07:21:38.566Z,33.40
2022-11-14T07:24:29.246Z,33.70
2022-11-14T07:27:20.265Z,31.60
2022-11-14T07:30:09.489Z,32.30
2022-11-14T07:32:59.372Z,32.70
2022-11-14T07:35:47.742Z,32.80
2022-11-14T07:38:36.870Z,32.30
2022-11-14T07:41:25.246Z,33.80
2022-11-14T07:44:14.125Z,32.20
2022-11-14T07:47:02.502Z,33.40
2022-11-14T07:49:51.068Z,34.50
2022-11-14T07:52:39.706Z,34.20
2022-11-14T07:55:28.190Z,31.60
2022-11-14T07:58:16.540Z,32.60
2022-11-14T08:01:05.525Z,33.20
2022-11-14T08:03:53.710Z,33.50
2022-11-14T08:06:42.419Z,32.60
2022-11-14T08:09:30.855Z,32.70
2022-11-14T08:12:19.984Z,33.30
2022-11-14T08:15:12.534Z,32.70
2022-11-14T08:18:03.748Z,33.10
2022-11-14T08:20:52.396Z,33.50
2022-11-14T08:23:40.576Z,33.00
2022-11-14T08:26:34.050Z,35.30
2022-11-14T08:29:22.724Z,34.40
2022-11-14T08:32:12.345Z,36.30
2022-11-14T08:35:00.935Z,33.80
2022-11-14T08:37:49.124Z,34.40
2022-11-14T08:40:37.609Z,33.60
2022-11-14T08:43:26.307Z,33.00
2022-11-14T08:46:15.279Z,35.20
2022-11-14T08:49:03.420Z,37.70
2022-11-14T08:51:54.784Z,34.70
2022-11-14T08:54:43.138Z,37.40
2022-11-14T08:57:31.774Z,42.40
2022-11-14T09:00:20.625Z,40.50
2022-11-14T09:03:17.135Z,38.90
2022-11-14T09:06:06.276Z,37.80
2022-11-14T09:08:55.139Z,37.20
2022-11-14T09:11:43.621Z,41.50
2022-11-14T09:14:32.013Z,42.30
2022-11-14T09:17:20.571Z,42.20
2022-11-14T09:20:09.654Z,39.50
2022-11-14T09:23:00.541Z,40.10
2022-11-14T09:25:49.373Z,40.40
2022-11-14T09:28:38.785Z,42.20
2022-11-14T09:31:27.502Z,41.90
2022-11-14T09:34:16.185Z,42.00
2022-11-14T09:37:04.624Z,37.40
2022-11-14T09:39:53.529Z,42.80
2022-11-14T09:43:14.982Z,42.00
2022-11-14T09:46:02.678Z,41.70
2022-11-14T09:48:50.930Z,44.10
2022-11-14T09:51:44.680Z,42.60
2022-11-14T09:54:40.993Z,40.10
2022-11-14T09:57:29.216Z,40.20
2022-11-14T10:00:22.719Z,42.40
2022-11-14T10:03:41.934Z,38.90
2022-11-14T10:06:36.880Z,41.00
2022-11-14T10:09:30.648Z,39.50
2022-11-14T10:12:28.773Z,40.40
2022-11-14T10:15:34.090Z,37.40
2022-11-14T10:18:56.195Z,43.40
2022-11-14T10:22:06.407Z,36.50
2022-11-14T10:24:57.373Z,40.40
2022-11-14T10:28:02.326Z,41.10
2022-11-14T10:31:06.524Z,41.90
2022-11-14T10:34:40.211Z,38.40
2022-11-14T10:37:43.530Z,39.00
2022-11-14T10:40:48.944Z,37.20
2022-11-14T10:43:45.942Z,36.90
2022-11-14T10:46:36.902Z,37.00
2022-11-14T10:49:26.611Z,38.80
2022-11-14T10:52:16.753Z,41.90
2022-11-14T10:55:20.701Z,39.40
2022-11-14T10:58:12.222Z,40.70
2022-11-14T11:01:20.395Z,40.90
2022-11-14T11:04:38.088Z,43.10
2022-11-14T11:07:45.967Z,39.50
2022-11-14T11:10:55.178Z,40.60
2022-11-14T11:13:57.087Z,39.30
2022-11-14T11:16:45.825Z,41.50
2022-11-14T11:19:34.021Z,40.70
2022-11-14T11:22:30.781Z,42.80
2022-11-14T11:25:25.496Z,43.30
2022-11-14T11:28:20.278Z,40.70
2022-11-14T11:31:09.882Z,40.90
2022-11-14T11:33:57.802Z,42.60
2022-11-14T11:36:48.954Z,40.40
2022-11-14T11:39:40.049Z,41.00
2022-11-14T11:45:50.514Z,43.30
2022-11-14T11:48:41.840Z,43.90
2022-11-14T11:51:32.437Z,38.80
2022-11-14T11:54:37.407Z,43.30
2022-11-14T11:57:32.004Z,36.90
2022-11-14T12:00:21.932Z,34.60
2022-11-14T12:03:31.894Z,40.20
2022-11-14T12:06:28.527Z,37.70
2022-11-14T12:09:48.745Z,38.50
2022-11-14T12:12:46.392Z,42.90
2022-11-14T12:15:43.323Z,39.80
2022-11-14T12:18:37.402Z,44.20
2022-11-14T12:21:34.431Z,42.90
2022-11-14T12:24:51.619Z,44.90
2022-11-14T12:27:43.465Z,42.20
2022-11-14T12:30:31.628Z,39.10
2022-11-14T12:33:19.879Z,42.70
2022-11-14T12:36:10.064Z,38.40
2022-11-14T12:38:58.046Z,39.40
2022-11-14T12:41:46.026Z,39.10
2022-11-14T12:44:39.289Z,37.20
2022-11-14T12:47:30.675Z,40.00
2022-11-14T12:50:42.591Z,38.50
2022-11-14T12:53:39.543Z,40.00
2022-11-14T12:56:33.329Z,39.50
2022-11-14T12:59:41.900Z,42.00
2022-11-14T13:02:51.785Z,39.70
2022-11-14T13:05:53.072Z,41.50
2022-11-14T13:08:44.323Z,38.20
2022-11-14T13:11:55.343Z,41.30
2022-11-14T13:15:15.690Z,40.80
2022-11-14T13:18:35.441Z,37.00
2022-11-14T13:21:49.003Z,39.70
2022-11-14T13:25:02.319Z,37.30
2022-11-14T13:28:07.116Z,37.80
2022-11-14T13:31:20.813Z,37.30
2022-11-14T13:34:47.626Z,38.70
2022-11-14T13:38:02.398Z,39.20
2022-11-14T13:41:24.407Z,38.90
2022-11-14T13:44:34.042Z,36.10
2022-11-14T13:47:34.378Z,40.60
2022-11-14T13:50:44.151Z,38.40
2022-11-14T13:53:33.387Z,38.70
2022-11-14T13:56:43.392Z,37.60
2022-11-14T13:59:57.642Z,37.00
2022-11-14T14:03:01.467Z,36.70
2022-11-14T14:06:05.978Z,41.30
2022-11-14T14:09:07.119Z,37.40
2022-11-14T14:12:08.062Z,36.70
2022-11-14T14:15:24.204Z,38.00
2022-11-14T14:18:29.867Z,36.70
2022-11-14T14:21:34.056Z,38.70
2022-11-14T14:24:33.650Z,39.20
2022-11-14T14:27:33.641Z,34.40
2022-11-14T14:30:22.109Z,38.10
2022-11-14T14:33:09.905Z,34.80
2022-11-14T14:35:57.949Z,36.60
2022-11-14T14:38:46.227Z,39.20
2022-11-14T14:41:34.237Z,36.40
2022-11-14T14:44:35.049Z,37.40
2022-11-14T14:47:35.877Z,37.10
2022-11-14T14:50:42.039Z,37.00
2022-11-14T14:53:34.622Z,34.60
2022-11-14T14:56:25.886Z,37.50
2022-11-14T14:59:22.658Z,36.20
2022-11-14T15:02:18.863Z,36.50
2022-11-14T15:05:07.318Z,36.80
2022-11-14T15:07:59.525Z,35.70
2022-11-14T15:10:47.700Z,36.50
2022-11-14T15:13:35.532Z,35.90
2022-11-14T15:16:23.795Z,34.70
2022-11-14T15:19:15.386Z,36.60
2022-11-14T15:22:21.547Z,38.30
2022-11-14T15:25:15.909Z,39.30
2022-11-14T15:28:04.066Z,37.40
2022-11-14T15:31:02.950Z,36.30
2022-11-14T15:34:08.048Z,34.80
2022-11-14T15:37:19.941Z,33.20
2022-11-14T15:40:21.845Z,37.80
2022-11-14T15:44:02.958Z,36.40
2022-11-14T15:46:51.462Z,39.20
2022-11-14T15:49:39.600Z,34.50
2022-11-14T15:52:36.817Z,35.90
2022-11-14T15:55:30.687Z,34.30
2022-11-14T15:58:28.141Z,36.40
2022-11-14T16:01:21.839Z,33.90
2022-11-14T16:04:19.073Z,34.60
2022-11-14T16:07:16.739Z,36.20
2022-11-14T16:10:24.905Z,36.50
2022-11-14T16:13:19.935Z,34.40
2022-11-14T16:16:13.453Z,35.70
2022-11-14T16:19:08.862Z,33.80
2022-11-14T16:22:06.239Z,39.70
2022-11-14T16:24:57.238Z,34.50
2022-11-14T16:27:50.944Z,35.40
2022-11-14T16:30:44.160Z,36.40
2022-11-14T16:33:35.469Z,33.30
2022-11-14T16:36:24.805Z,37.10
2022-11-14T16:39:14.643Z,37.50
2022-11-14T16:42:06.506Z,37.30
2022-11-14T16:44:54.699Z,37.70
2022-11-14T16:47:43.193Z,36.60
2022-11-14T16:50:31.258Z,37.20
2022-11-14T16:53:19.879Z,34.30
2022-11-14T16:56:17.043Z,36.60
2022-11-14T16:59:05.373Z,36.00
2022-11-14T17:01:57.197Z,33.40
2022-11-14T17:04:57.517Z,38.00
2022-11-14T17:07:46.949Z,38.30
2022-11-14T17:10:36.726Z,36.90
2022-11-14T17:13:31.864Z,36.90
2022-11-14T17:16:30.435Z,34.30
2022-11-14T17:19:22.732Z,36.40
2022-11-14T17:22:16.775Z,35.20
2022-11-14T17:25:08.286Z,33.30
2022-11-14T17:27:57.830Z,34.20
2022-11-14T17:30:46.850Z,36.70
2022-11-14T17:33:36.938Z,36.60
2022-11-14T17:36:26.387Z,34.50
2022-11-14T17:39:14.181Z,37.40
2022-11-14T17:42:02.344Z,35.60
2022-11-14T17:44:50.885Z,34.80
2022-11-14T17:47:39.064Z,34.10
2022-11-14T17:50:29.198Z,35.10
2022-11-14T17:53:20.756Z,34.10
2022-11-14T17:56:09.690Z,36.10
2022-11-14T17:58:57.861Z,33.50
2022-11-14T18:01:46.506Z,35.30
2022-11-14T18:04:34.915Z,35.40
2022-11-14T18:07:23.251Z,32.40
2022-11-14T18:10:12.304Z,36.10
2022-11-14T18:13:06.363Z,37.90
2022-11-14T18:15:55.399Z,36.90
2022-11-14T18:18:45.693Z,35.80
2022-11-14T18:21:35.233Z,35.50
2022-11-14T18:24:25.316Z,34.60
2022-11-14T18:27:14.785Z,35.40
2022-11-14T18:30:20.169Z,33.90
2022-11-14T18:33:21.914Z,37.90
2022-11-14T18:36:13.497Z,34.70
2022-11-14T18:39:02.404Z,36.40
2022-11-14T18:41:52.566Z,36.30
2022-11-14T18:44:41.344Z,32.60
2022-11-14T18:47:32.301Z,34.10
2022-11-14T18:50:20.961Z,35.20
2022-11-14T18:53:10.884Z,37.10
2022-11-14T18:55:59.905Z,36.30
2022-11-14T18:58:48.676Z,36.80
2022-11-14T19:01:37.860Z,36.20
2022-11-14T19:04:26.570Z,36.40
2022-11-14T19:07:16.333Z,34.60
2022-11-14T19:10:05.043Z,33.20
2022-11-14T19:12:53.530Z,35.50
2022-11-14T19:15:43.705Z,36.20
2022-11-14T19:18:32.611Z,34.20
2022-11-14T19:21:20.707Z,34.60
2022-11-14T19:24:09.814Z,34.90
2022-11-14T19:26:58.401Z,35.00
2022-11-14T19:29:47.340Z,32.70
2022-11-14T19:32:36.626Z,34.30
2022-11-14T19:35:24.800Z,33.50
2022-11-14T19:38:12.790Z,34.50
2022-11-14T19:41:06.753Z,35.40
2022-11-14T19:43:55.996Z,34.30
2022-11-14T19:46:47.594Z,36.50
2022-11-14T19:49:36.556Z,33.20
2022-11-14T19:52:24.789Z,33.60
2022-11-14T19:55:13.274Z,32.40
2022-11-14T19:58:01.741Z,37.70
2022-11-14T20:00:50.615Z,35.80
2022-11-14T20:03:39.222Z,36.50
2022-11-14T20:06:29.375Z,38.20
2022-11-14T20:09:17.883Z,34.30
2022-11-14T20:12:06.466Z,33.30
2022-11-14T20:14:54.886Z,34.70
2022-11-14T20:17:43.318Z,35.00
2022-11-14T20:20:31.950Z,36.20
2022-11-14T20:23:20.289Z,36.00
2022-11-14T20:26:11.384Z,34.90
2022-11-14T20:29:00.691Z,32.50
2022-11-14T20:31:49.406Z,33.80
2022-11-14T20:34:37.705Z,36.80
2022-11-14T20:37:26.239Z,35.90
2022-11-14T20:40:14.899Z,35.30
2022-11-14T20:43:03.041Z,35.60
2022-11-14T20:46:13.496Z,35.40
2022-11-14T20:49:01.632Z,34.30
2022-11-14T20:51:50.921Z,35.80
2022-11-14T20:54:39.278Z,33.20
2022-11-14T20:57:27.073Z,35.20
2022-11-14T21:00:15.272Z,33.80
2022-11-14T21:03:03.420Z,33.30
2022-11-14T21:05:51.660Z,34.90
2022-11-14T21:08:39.604Z,32.10
2022-11-14T21:11:27.595Z,34.30
2022-11-14T21:14:15.776Z,37.20
2022-11-14T21:17:03.791Z,34.50
2022-11-14T21:19:52.025Z,32.70
2022-11-14T21:22:40.104Z,31.60
2022-11-14T21:25:28.391Z,34.30
2022-11-14T21:28:16.680Z,35.60
2022-11-14T21:31:14.073Z,32.40
2022-11-14T21:34:03.170Z,35.30
2022-11-14T21:36:51.819Z,34.40
2022-11-14T21:39:40.029Z,36.50
2022-11-14T21:42:27.824Z,32.90
2022-11-14T21:45:15.666Z,33.50
2022-11-14T21:48:03.582Z,34.70
2022-11-14T21:50:51.879Z,32.50
2022-11-14T21:53:40.324Z,30.80
2022-11-14T21:56:32.255Z,34.40
2022-11-14T21:59:22.643Z,33.10
2022-11-14T22:02:32.319Z,34.10
2022-11-14T22:05:20.225Z,35.90
2022-11-14T22:08:08.392Z,36.50
2022-11-14T22:11:02.301Z,36.90
2022-11-14T22:13:49.858Z,33.00
2022-11-14T22:16:38.096Z,33.70
2022-11-14T22:19:26.278Z,34.00
2022-11-14T22:22:14.481Z,33.70
2022-11-14T22:25:02.383Z,33.80
2022-11-14T22:27:50.309Z,35.00
2022-11-14T22:30:38.524Z,36.40
2022-11-14T22:33:26.486Z,31.80
2022-11-14T22:36:17.714Z,34.40
2022-11-14T22:39:06.744Z,32.80
2022-11-14T22:41:57.662Z,32.40
2022-11-14T22:44:45.685Z,34.70
2022-11-14T22:47:33.557Z,35.90
2022-11-14T22:50:21.872Z,34.30
2022-11-14T22:53:09.747Z,35.20
2022-11-14T22:55:57.649Z,37.10
2022-11-14T22:58:48.622Z,35.70
2022-11-14T23:01:36.624Z,37.70
2022-11-14T23:04:25.256Z,34.70
2022-11-14T23:07:13.457Z,36.30
2022-11-14T23:10:01.893Z,32.30
2022-11-14T23:12:50.016Z,31.80
2022-11-14T23:15:38.554Z,33.40
2022-11-14T23:18:27.082Z,36.00
2022-11-14T23:21:17.766Z,32.90
2022-11-14T23:24:07.636Z,34.10
2022-11-14T23:26:56.148Z,35.00
2022-11-14T23:29:44.585Z,36.50
2022-11-14T23:32:33.731Z,32.30
2022-11-14T23:35:21.867Z,33.20
2022-11-14T23:38:10.439Z,31.70
2022-11-14T23:41:02.565Z,31.70
2022-11-14T23:43:50.903Z,35.60
2022-11-14T23:46:38.694Z,37.10
2022-11-14T23:49:27.000Z,32.80
2022-11-14T23:52:15.267Z,31.70
2022-11-14T23:55:04.630Z,36.70
2022-11-14T23:57:52.907Z,33.30
